Montevideo, Uruguay

12:00 PM UYT en Julio 23, 2016 (GMT -0300)
Parque Miramar | | Change Station

Alt 30 ft 34.87 °S, 56.04 °W | Updated 55 seconds ago

Clear
Despejado
56.7 ° F
Sensación térmica 56.7 ° F
N
0.0
Viento Variable Viento desde NNO
Gusts 0.0 mph

Hoy
Alta -- | Baja -- ° F
--% Posibilidad de precipitaciones
Ayer
Alta -- | Baja -- ° F
Precip. -- pul
Presión 30.01 pul
Visibilidad -9999.0 Millas
Nubes
Punto de rocío 50 ° F
Humedad 78%
Precipitaciones 0.00 pul
Espesor de la nieve No disponible.
7:44 AM 5:56 PM
Gibosa menguante, 84% visible
METAR SUMU 231500Z 34007KT CAVOK 12/07 Q1016 NOSIG
Presión 30.01 pul
Visibilidad -9999.0 Millas
Nubes
Punto de rocío 50 ° F
Humedad 78%
Precipitaciones 0.00 pul
Espesor de la nieve No disponible.
7:44 AM 5:56 PM
Gibosa menguante, 84% visible
METAR SUMU 231500Z 34007KT CAVOK 12/07 Q1016 NOSIG

10-Day Weather Forecast

No radar image for this location.
×

Almanac

Astronomía

Jul. 23, 2016 Salida Puesta
Hora real
Crepúsculo civil
Crepúsculo náutico
Crepúsculo astronómico
Luna
Horas de luz
Horas de luz
Tomorrow will be .
, % of the Moon is Illuminated

Extremos de hoy

Máximos del país Bajas del país

Community

WunderPhotos

Upload Photos

1,926,825 ¡fotos cargadas!

WunderBlog® & News

Nearby

Calidad del aire

  Calidad del aire Índice AQ Contaminante
Not available.

Grosos de nieve

Estación Profundido Altura

Actividad de terremotos

Ciudad Distance Mag. Tiempo y dato
Magnitud mínima muestra es 2,5.

Temperaturas de aguas costeras

Lugar Temperatura

Stations

Estaciones meteorológicas cercanas

Ubicación de la estación Temp. Vientos helados Punto de rocío Humedad Viento Precip. Alt Actualizado Tipo